sensor_id;sensor_type;location;lat;lon;timestamp;pressure;altitude;pressure_sealevel;temperature;humidity
47154;BME280;32907;41.412;2.164;2023-05-24T00:00:44;100170.19;;;22.51;44.84
47154;BME280;32907;41.412;2.164;2023-05-24T00:03:13;100261.56;;;23.07;45.04
47154;BME280;32907;41.412;2.164;2023-05-24T00:05:48;100134.63;;;22.33;44.61
47154;BME280;32907;41.412;2.164;2023-05-24T00:08:17;100303.28;;;23.30;44.89
47154;BME280;32907;41.412;2.164;2023-05-24T00:10:49;100149.72;;;22.31;44.78
47154;BME280;32907;41.412;2.164;2023-05-24T00:13:17;100205.66;;;22.82;44.47
47154;BME280;32907;41.412;2.164;2023-05-24T00:15:46;100271.56;;;23.20;43.88
47154;BME280;32907;41.412;2.164;2023-05-24T00:18:16;100373.59;;;23.86;44.38
47154;BME280;32907;41.412;2.164;2023-05-24T00:20:48;100222.19;;;22.77;44.61
47154;BME280;32907;41.412;2.164;2023-05-24T00:23:24;100383.56;;;23.73;44.51
47154;BME280;32907;41.412;2.164;2023-05-24T00:25:52;100088.59;;;22.10;44.54
47154;BME280;32907;41.412;2.164;2023-05-24T00:28:24;100279.59;;;23.25;44.38
47154;BME280;32907;41.412;2.164;2023-05-24T00:31:25;100138.78;;;22.31;44.39
47154;BME280;32907;41.412;2.164;2023-05-24T00:33:56;100365.53;;;23.81;44.13
47154;BME280;32907;41.412;2.164;2023-05-24T00:36:27;100218.03;;;22.79;44.76
47154;BME280;32907;41.412;2.164;2023-05-24T00:38:58;100273.53;;;23.28;44.44
47154;BME280;32907;41.412;2.164;2023-05-24T00:41:27;100235.09;;;22.85;44.42
47154;BME280;32907;41.412;2.164;2023-05-24T00:44:02;100372.31;;;23.84;44.70
47154;BME280;32907;41.412;2.164;2023-05-24T00:46:33;100264.78;;;23.17;44.66
47154;BME280;32907;41.412;2.164;2023-05-24T00:49:02;100112.09;;;22.28;44.89
47154;BME280;32907;41.412;2.164;2023-05-24T00:51:32;100136.25;;;22.43;44.72
47154;BME280;32907;41.412;2.164;2023-05-24T00:54:07;100125.91;;;22.23;44.61
47154;BME280;32907;41.412;2.164;2023-05-24T00:56:37;100204.91;;;22.90;44.95
47154;BME280;32907;41.412;2.164;2023-05-24T00:59:10;100367.97;;;23.83;45.13
47154;BME280;32907;41.412;2.164;2023-05-24T01:01:45;100250.63;;;23.15;44.75
47154;BME280;32907;41.412;2.164;2023-05-24T01:04:32;100118.19;;;22.25;44.75
47154;BME280;32907;41.412;2.164;2023-05-24T01:10:31;100209.19;;;22.82;44.82
47154;BME280;32907;41.412;2.164;2023-05-24T01:15:50;100348.97;;;23.78;44.81
47154;BME280;32907;41.412;2.164;2023-05-24T01:22:06;100353.16;;;23.75;44.95
47154;BME280;32907;41.412;2.164;2023-05-24T01:27:05;100356.69;;;23.76;45.12
47154;BME280;32907;41.412;2.164;2023-05-24T01:29:35;100355.09;;;23.75;45.16
47154;BME280;32907;41.412;2.164;2023-05-24T01:32:03;100355.09;;;23.75;45.41
47154;BME280;32907;41.412;2.164;2023-05-24T01:34:32;100321.88;;;23.59;45.46
47154;BME280;32907;41.412;2.164;2023-05-24T01:37:00;100347.97;;;23.73;45.41
47154;BME280;32907;41.412;2.164;2023-05-24T01:39:28;100317.66;;;23.53;45.05
47154;BME280;32907;41.412;2.164;2023-05-24T01:50:45;100352.97;;;23.71;45.27
47154;BME280;32907;41.412;2.164;2023-05-24T01:53:18;100312.19;;;23.44;45.63
47154;BME280;32907;41.412;2.164;2023-05-24T01:55:52;100328.75;;;23.56;45.44
47154;BME280;32907;41.412;2.164;2023-05-24T01:58:22;100345.41;;;23.68;45.57
47154;BME280;32907;41.412;2.164;2023-05-24T02:00:51;100310.91;;;23.50;45.12
47154;BME280;32907;41.412;2.164;2023-05-24T02:03:20;100294.78;;;23.40;45.34
47154;BME280;32907;41.412;2.164;2023-05-24T02:05:48;100300.25;;;23.40;45.15
47154;BME280;32907;41.412;2.164;2023-05-24T02:08:22;100312.84;;;23.58;44.87
47154;BME280;32907;41.412;2.164;2023-05-24T02:10:54;100165.56;;;22.60;45.18
47154;BME280;32907;41.412;2.164;2023-05-24T02:13:25;100361.19;;;23.71;45.19
47154;BME280;32907;41.412;2.164;2023-05-24T02:15:57;100084.81;;;22.05;45.03
47154;BME280;32907;41.412;2.164;2023-05-24T02:18:27;100192.63;;;22.79;45.21
47154;BME280;32907;41.412;2.164;2023-05-24T02:21:12;100145.41;;;22.39;45.33
47154;BME280;32907;41.412;2.164;2023-05-24T02:23:44;100328.31;;;23.71;45.17
47154;BME280;32907;41.412;2.164;2023-05-24T02:26:17;100318.34;;;23.67;44.91
47154;BME280;32907;41.412;2.164;2023-05-24T02:28:46;100094.41;;;22.17;44.92
47154;BME280;32907;41.412;2.164;2023-05-24T02:31:17;100305.94;;;23.61;45.14
47154;BME280;32907;41.412;2.164;2023-05-24T02:33:49;100196.69;;;22.90;45.34
47154;BME280;32907;41.412;2.164;2023-05-24T02:36:22;100041.59;;;21.90;45.16
47154;BME280;32907;41.412;2.164;2023-05-24T02:38:53;100174.56;;;22.69;45.12
47154;BME280;32907;41.412;2.164;2023-05-24T02:41:24;100169.78;;;22.75;45.42
47154;BME280;32907;41.412;2.164;2023-05-24T02:43:57;100325.13;;;23.69;44.80
47154;BME280;32907;41.412;2.164;2023-05-24T02:46:26;100282.41;;;23.42;44.97
47154;BME280;32907;41.412;2.164;2023-05-24T02:48:58;100244.69;;;23.22;45.29
47154;BME280;32907;41.412;2.164;2023-05-24T02:51:27;100311.75;;;23.68;44.78
47154;BME280;32907;41.412;2.164;2023-05-24T02:53:59;100233.41;;;23.06;44.90
47154;BME280;32907;41.412;2.164;2023-05-24T02:56:28;100091.81;;;22.20;44.79
47154;BME280;32907;41.412;2.164;2023-05-24T02:58:58;100142.06;;;22.59;45.05
47154;BME280;32907;41.412;2.164;2023-05-24T03:01:32;100083.59;;;22.12;44.57
47154;BME280;32907;41.412;2.164;2023-05-24T03:04:02;100123.41;;;22.44;44.72
47154;BME280;32907;41.412;2.164;2023-05-24T03:06:32;100154.13;;;22.58;44.70
47154;BME280;32907;41.412;2.164;2023-05-24T03:09:03;100308.22;;;23.67;44.79
47154;BME280;32907;41.412;2.164;2023-05-24T03:11:34;100333.66;;;23.68;45.20
47154;BME280;32907;41.412;2.164;2023-05-24T03:14:03;100175.25;;;22.75;44.65
47154;BME280;32907;41.412;2.164;2023-05-24T03:16:34;100301.59;;;23.60;44.68
47154;BME280;32907;41.412;2.164;2023-05-24T03:19:07;100324.31;;;23.69;45.14
47154;BME280;32907;41.412;2.164;2023-05-24T03:21:39;100083.78;;;22.15;45.04
47154;BME280;32907;41.412;2.164;2023-05-24T03:24:10;100172.84;;;22.73;45.06
47154;BME280;32907;41.412;2.164;2023-05-24T03:26:45;100231.00;;;23.13;45.19
47154;BME280;32907;41.412;2.164;2023-05-24T03:29:18;100093.59;;;22.16;45.02
47154;BME280;32907;41.412;2.164;2023-05-24T03:31:49;100073.66;;;22.16;45.33
47154;BME280;32907;41.412;2.164;2023-05-24T03:34:27;100099.41;;;22.23;44.95
47154;BME280;32907;41.412;2.164;2023-05-24T03:36:55;100063.06;;;22.14;45.48
47154;BME280;32907;41.412;2.164;2023-05-24T03:39:25;100072.41;;;22.22;45.54
47154;BME280;32907;41.412;2.164;2023-05-24T03:41:58;100301.28;;;23.61;45.17
47154;BME280;32907;41.412;2.164;2023-05-24T03:44:28;100178.44;;;22.77;45.18
47154;BME280;32907;41.412;2.164;2023-05-24T03:46:59;100177.03;;;22.79;44.92
47154;BME280;32907;41.412;2.164;2023-05-24T03:49:30;100231.47;;;23.07;44.74
47154;BME280;32907;41.412;2.164;2023-05-24T03:51:59;100177.50;;;22.73;44.79
47154;BME280;32907;41.412;2.164;2023-05-24T03:54:31;100154.59;;;22.51;44.91
47154;BME280;32907;41.412;2.164;2023-05-24T03:57:01;100087.78;;;22.09;44.95
47154;BME280;32907;41.412;2.164;2023-05-24T03:59:33;100189.94;;;22.87;44.87
47154;BME280;32907;41.412;2.164;2023-05-24T04:02:02;100228.75;;;23.15;44.72
47154;BME280;32907;41.412;2.164;2023-05-24T04:04:39;100083.94;;;22.10;44.82
47154;BME280;32907;41.412;2.164;2023-05-24T04:07:20;100156.41;;;22.65;44.63
47154;BME280;32907;41.412;2.164;2023-05-24T04:09:51;100157.38;;;22.69;44.69
47154;BME280;32907;41.412;2.164;2023-05-24T04:12:20;100058.06;;;22.08;44.82
47154;BME280;32907;41.412;2.164;2023-05-24T04:14:50;100137.06;;;22.52;44.77
47154;BME280;32907;41.412;2.164;2023-05-24T04:17:21;100177.94;;;22.66;44.88
47154;BME280;32907;41.412;2.164;2023-05-24T04:19:52;100127.06;;;22.30;44.88
47154;BME280;32907;41.412;2.164;2023-05-24T04:22:29;100164.41;;;22.61;44.35
47154;BME280;32907;41.412;2.164;2023-05-24T04:25:01;100327.19;;;23.64;44.86
47154;BME280;32907;41.412;2.164;2023-05-24T04:27:35;100134.78;;;22.37;44.94
47154;BME280;32907;41.412;2.164;2023-05-24T04:30:04;100122.41;;;22.31;44.86
47154;BME280;32907;41.412;2.164;2023-05-24T04:32:35;100180.03;;;22.69;45.28
47154;BME280;32907;41.412;2.164;2023-05-24T04:35:05;100181.97;;;22.69;45.13
47154;BME280;32907;41.412;2.164;2023-05-24T04:37:35;100058.97;;;22.03;45.10
47154;BME280;32907;41.412;2.164;2023-05-24T04:40:07;100021.00;;;21.84;45.02
47154;BME280;32907;41.412;2.164;2023-05-24T04:42:37;100162.34;;;22.67;44.71
47154;BME280;32907;41.412;2.164;2023-05-24T04:45:09;100211.53;;;23.06;44.72
47154;BME280;32907;41.412;2.164;2023-05-24T04:47:43;100327.38;;;23.67;44.80
47154;BME280;32907;41.412;2.164;2023-05-24T04:50:13;100079.75;;;22.13;44.89
47154;BME280;32907;41.412;2.164;2023-05-24T04:52:44;100159.75;;;22.53;45.06
47154;BME280;32907;41.412;2.164;2023-05-24T04:55:13;100228.75;;;23.15;44.96
47154;BME280;32907;41.412;2.164;2023-05-24T04:57:44;100079.97;;;22.25;44.86
47154;BME280;32907;41.412;2.164;2023-05-24T05:00:13;100326.06;;;23.65;44.38
47154;BME280;32907;41.412;2.164;2023-05-24T05:02:43;100106.97;;;22.35;44.61
47154;BME280;32907;41.412;2.164;2023-05-24T05:05:14;100093.63;;;22.33;44.54
47154;BME280;32907;41.412;2.164;2023-05-24T05:08:17;100154.63;;;22.69;44.38
47154;BME280;32907;41.412;2.164;2023-05-24T05:10:50;100050.78;;;22.03;44.21
47154;BME280;32907;41.412;2.164;2023-05-24T05:13:20;100065.47;;;22.16;44.47
47154;BME280;32907;41.412;2.164;2023-05-24T05:15:52;100071.72;;;22.08;44.03
47154;BME280;32907;41.412;2.164;2023-05-24T05:18:23;100168.16;;;22.74;44.16
47154;BME280;32907;41.412;2.164;2023-05-24T05:20:52;100166.25;;;22.83;44.06
47154;BME280;32907;41.412;2.164;2023-05-24T05:23:20;100163.63;;;22.69;44.15
47154;BME280;32907;41.412;2.164;2023-05-24T05:25:52;100042.09;;;22.01;44.45
47154;BME280;32907;41.412;2.164;2023-05-24T05:28:24;100312.56;;;23.68;44.15
47154;BME280;32907;41.412;2.164;2023-05-24T05:30:55;100209.78;;;23.10;44.10
47154;BME280;32907;41.412;2.164;2023-05-24T05:33:32;100215.41;;;23.14;44.05
47154;BME280;32907;41.412;2.164;2023-05-24T05:36:02;100037.59;;;22.05;44.07
47154;BME280;32907;41.412;2.164;2023-05-24T05:38:33;100119.72;;;22.48;44.42
47154;BME280;32907;41.412;2.164;2023-05-24T05:41:10;100041.31;;;22.00;44.51
47154;BME280;32907;41.412;2.164;2023-05-24T05:43:39;100074.00;;;22.14;44.42
47154;BME280;32907;41.412;2.164;2023-05-24T05:46:10;100222.81;;;23.13;44.48
47154;BME280;32907;41.412;2.164;2023-05-24T05:48:51;100080.59;;;22.22;44.44
47154;BME280;32907;41.412;2.164;2023-05-24T05:51:19;100170.75;;;22.79;44.79
47154;BME280;32907;41.412;2.164;2023-05-24T05:53:48;100131.31;;;22.54;44.34
47154;BME280;32907;41.412;2.164;2023-05-24T05:56:17;100069.84;;;22.25;44.48
47154;BME280;32907;41.412;2.164;2023-05-24T05:58:52;100195.44;;;23.05;44.44
47154;BME280;32907;41.412;2.164;2023-05-24T06:01:21;100050.03;;;22.11;44.30
47154;BME280;32907;41.412;2.164;2023-05-24T06:03:50;100075.16;;;22.22;44.51
47154;BME280;32907;41.412;2.164;2023-05-24T06:06:25;100320.78;;;23.77;44.70
47154;BME280;32907;41.412;2.164;2023-05-24T06:08:55;100320.28;;;23.75;44.90
47154;BME280;32907;41.412;2.164;2023-05-24T06:11:25;100248.44;;;23.35;44.75
47154;BME280;32907;41.412;2.164;2023-05-24T06:13:56;100094.09;;;22.27;44.57
47154;BME280;32907;41.412;2.164;2023-05-24T06:16:25;100108.78;;;22.40;44.65
47154;BME280;32907;41.412;2.164;2023-05-24T06:18:55;100215.25;;;23.10;44.86
47154;BME280;32907;41.412;2.164;2023-05-24T06:21:33;100236.78;;;23.03;44.59
47154;BME280;32907;41.412;2.164;2023-05-24T06:24:04;100161.25;;;22.76;44.38
47154;BME280;32907;41.412;2.164;2023-05-24T06:26:32;100189.63;;;22.89;44.53
47154;BME280;32907;41.412;2.164;2023-05-24T06:29:01;100323.66;;;23.81;44.59
47154;BME280;32907;41.412;2.164;2023-05-24T06:31:30;100314.16;;;23.69;44.57
47154;BME280;32907;41.412;2.164;2023-05-24T06:33:59;100224.88;;;23.16;44.73
47154;BME280;32907;41.412;2.164;2023-05-24T06:36:33;100125.03;;;22.53;44.78
47154;BME280;32907;41.412;2.164;2023-05-24T06:39:13;100238.75;;;23.29;44.95
47154;BME280;32907;41.412;2.164;2023-05-24T06:41:43;100235.69;;;23.30;44.78
47154;BME280;32907;41.412;2.164;2023-05-24T06:44:13;100180.44;;;22.85;44.37
47154;BME280;32907;41.412;2.164;2023-05-24T06:46:42;100121.50;;;22.61;44.70
47154;BME280;32907;41.412;2.164;2023-05-24T06:49:12;100179.34;;;22.95;44.84
47154;BME280;32907;41.412;2.164;2023-05-24T06:51:41;100177.88;;;22.88;44.84
47154;BME280;32907;41.412;2.164;2023-05-24T06:54:09;100174.03;;;22.98;45.02
47154;BME280;32907;41.412;2.164;2023-05-24T06:56:38;100228.75;;;23.24;44.38
47154;BME280;32907;41.412;2.164;2023-05-24T06:59:07;100176.13;;;23.01;45.03
47154;BME280;32907;41.412;2.164;2023-05-24T07:01:36;100064.38;;;22.25;44.42
47154;BME280;32907;41.412;2.164;2023-05-24T07:04:10;100299.34;;;23.88;44.73
47154;BME280;32907;41.412;2.164;2023-05-24T07:06:39;100344.28;;;24.04;44.75
47154;BME280;32907;41.412;2.164;2023-05-24T07:09:07;100172.91;;;23.08;44.52
47154;BME280;32907;41.412;2.164;2023-05-24T07:11:43;100305.47;;;23.85;44.74
47154;BME280;32907;41.412;2.164;2023-05-24T07:14:13;100114.78;;;22.68;44.45
47154;BME280;32907;41.412;2.164;2023-05-24T07:16:43;100168.09;;;23.13;44.55
47154;BME280;32907;41.412;2.164;2023-05-24T07:19:12;100117.97;;;22.70;44.55
47154;BME280;32907;41.412;2.164;2023-05-24T07:21:40;100338.97;;;24.08;44.78
47154;BME280;32907;41.412;2.164;2023-05-24T07:24:09;100083.09;;;22.58;44.67
47154;BME280;32907;41.412;2.164;2023-05-24T07:26:45;100231.03;;;23.57;44.66
47154;BME280;32907;41.412;2.164;2023-05-24T07:29:13;100279.69;;;23.86;44.87
47154;BME280;32907;41.412;2.164;2023-05-24T07:31:44;100049.94;;;22.42;44.57
47154;BME280;32907;41.412;2.164;2023-05-24T07:34:17;100328.50;;;24.18;44.68
47154;BME280;32907;41.412;2.164;2023-05-24T07:36:47;100261.34;;;23.78;44.53
47154;BME280;32907;41.412;2.164;2023-05-24T07:39:16;100301.59;;;24.03;44.37
47154;BME280;32907;41.412;2.164;2023-05-24T07:41:46;100189.50;;;23.11;44.77
47154;BME280;32907;41.412;2.164;2023-05-24T07:44:17;100334.44;;;24.12;44.58
47154;BME280;32907;41.412;2.164;2023-05-24T07:46:47;100244.09;;;23.51;44.87
47154;BME280;32907;41.412;2.164;2023-05-24T07:49:17;100189.97;;;23.13;44.58
47154;BME280;32907;41.412;2.164;2023-05-24T07:51:46;100243.44;;;23.45;44.73
47154;BME280;32907;41.412;2.164;2023-05-24T07:54:15;100240.84;;;23.32;44.91
47154;BME280;32907;41.412;2.164;2023-05-24T07:56:49;100334.94;;;23.96;44.87
47154;BME280;32907;41.412;2.164;2023-05-24T07:59:19;100232.81;;;23.44;44.78
47154;BME280;32907;41.412;2.164;2023-05-24T08:01:48;100089.66;;;22.48;44.42
47154;BME280;32907;41.412;2.164;2023-05-24T08:04:21;100250.19;;;23.48;46.30
47154;BME280;32907;41.412;2.164;2023-05-24T08:06:54;100355.09;;;24.09;45.42
47154;BME280;32907;41.412;2.164;2023-05-24T08:09:27;100351.69;;;24.12;44.72
47154;BME280;32907;41.412;2.164;2023-05-24T08:11:59;100226.69;;;23.38;44.87
47154;BME280;32907;41.412;2.164;2023-05-24T08:14:28;100239.88;;;23.28;45.25
47154;BME280;32907;41.412;2.164;2023-05-24T08:16:57;100344.13;;;24.09;45.22
47154;BME280;32907;41.412;2.164;2023-05-24T08:19:29;100346.88;;;24.09;45.01
47154;BME280;32907;41.412;2.164;2023-05-24T08:22:03;100089.81;;;22.52;45.38
47154;BME280;32907;41.412;2.164;2023-05-24T08:24:35;100206.38;;;23.13;46.55
47154;BME280;32907;41.412;2.164;2023-05-24T08:27:06;100237.81;;;23.59;45.64
47154;BME280;32907;41.412;2.164;2023-05-24T08:29:38;100219.44;;;23.34;46.03
47154;BME280;32907;41.412;2.164;2023-05-24T08:32:06;100337.38;;;24.33;46.03
47154;BME280;32907;41.412;2.164;2023-05-24T08:34:36;100108.25;;;22.86;45.33
47154;BME280;32907;41.412;2.164;2023-05-24T08:37:06;100252.16;;;23.82;44.97
47154;BME280;32907;41.412;2.164;2023-05-24T08:39:37;100335.44;;;24.33;44.93
47154;BME280;32907;41.412;2.164;2023-05-24T08:46:18;100248.31;;;23.75;44.91
47154;BME280;32907;41.412;2.164;2023-05-24T08:48:47;100192.72;;;23.13;45.86
47154;BME280;32907;41.412;2.164;2023-05-24T08:51:16;100116.44;;;22.86;46.04
47154;BME280;32907;41.412;2.164;2023-05-24T08:53:48;100248.47;;;23.61;45.47
47154;BME280;32907;41.412;2.164;2023-05-24T08:56:19;100100.47;;;22.71;45.61
47154;BME280;32907;41.412;2.164;2023-05-24T08:58:54;100081.47;;;22.48;45.49
47154;BME280;32907;41.412;2.164;2023-05-24T09:01:24;100235.59;;;23.61;45.41
47154;BME280;32907;41.412;2.164;2023-05-24T09:03:58;100113.19;;;22.84;45.92
47154;BME280;32907;41.412;2.164;2023-05-24T09:06:27;100069.09;;;22.59;45.96
47154;BME280;32907;41.412;2.164;2023-05-24T09:09:00;100185.31;;;23.23;45.88
47154;BME280;32907;41.412;2.164;2023-05-24T09:11:30;100359.31;;;24.33;45.96
47154;BME280;32907;41.412;2.164;2023-05-24T09:13:59;100065.88;;;22.57;45.75
47154;BME280;32907;41.412;2.164;2023-05-24T09:16:29;100117.59;;;23.02;45.78
47154;BME280;32907;41.412;2.164;2023-05-24T09:19:04;100063.00;;;22.63;45.33
47154;BME280;32907;41.412;2.164;2023-05-24T09:21:35;100152.81;;;23.21;44.79
47154;BME280;32907;41.412;2.164;2023-05-24T09:24:12;100182.59;;;23.40;44.86
47154;BME280;32907;41.412;2.164;2023-05-24T09:26:44;100164.56;;;23.39;45.21
47154;BME280;32907;41.412;2.164;2023-05-24T09:29:12;100080.38;;;22.84;45.29
47154;BME280;32907;41.412;2.164;2023-05-24T09:31:41;100162.81;;;23.34;45.63
47154;BME280;32907;41.412;2.164;2023-05-24T09:34:14;100106.66;;;23.11;45.36
47154;BME280;32907;41.412;2.164;2023-05-24T09:36:45;100083.81;;;22.98;44.54
47154;BME280;32907;41.412;2.164;2023-05-24T09:39:17;100054.81;;;22.80;44.17
47154;BME280;32907;41.412;2.164;2023-05-24T09:41:54;100288.66;;;24.29;43.90
47154;BME280;32907;41.412;2.164;2023-05-24T09:44:27;100339.88;;;24.64;44.44
47154;BME280;32907;41.412;2.164;2023-05-24T09:47:06;100121.59;;;23.31;44.88
47154;BME280;32907;41.412;2.164;2023-05-24T09:49:37;100075.75;;;22.93;44.95
47154;BME280;32907;41.412;2.164;2023-05-24T09:52:05;100082.50;;;23.13;43.90
47154;BME280;32907;41.412;2.164;2023-05-24T09:54:38;100089.75;;;23.09;43.38
47154;BME280;32907;41.412;2.164;2023-05-24T09:57:08;100324.75;;;24.49;44.06
47154;BME280;32907;41.412;2.164;2023-05-24T09:59:39;100192.91;;;23.78;43.98
47154;BME280;32907;41.412;2.164;2023-05-24T10:02:15;100345.66;;;24.79;44.44
47154;BME280;32907;41.412;2.164;2023-05-24T10:04:45;100119.19;;;23.21;45.75
47154;BME280;32907;41.412;2.164;2023-05-24T10:07:16;100099.25;;;23.11;45.09
47154;BME280;32907;41.412;2.164;2023-05-24T10:09:47;100072.19;;;23.10;44.06
47154;BME280;32907;41.412;2.164;2023-05-24T10:12:17;100177.13;;;23.66;43.29
47154;BME280;32907;41.412;2.164;2023-05-24T10:14:50;100112.59;;;23.30;44.12
47154;BME280;32907;41.412;2.164;2023-05-24T10:17:20;100190.50;;;23.67;44.32
47154;BME280;32907;41.412;2.164;2023-05-24T10:19:58;100097.00;;;23.13;44.08
47154;BME280;32907;41.412;2.164;2023-05-24T10:22:36;100086.19;;;23.17;44.54
47154;BME280;32907;41.412;2.164;2023-05-24T10:25:14;100140.59;;;23.62;44.60
47154;BME280;32907;41.412;2.164;2023-05-24T10:27:48;100357.56;;;24.83;44.39
47154;BME280;32907;41.412;2.164;2023-05-24T10:32:58;100171.63;;;23.83;43.34
47154;BME280;32907;41.412;2.164;2023-05-24T10:35:30;100052.25;;;23.09;43.09
47154;BME280;32907;41.412;2.164;2023-05-24T10:38:06;100125.91;;;23.58;43.07
47154;BME280;32907;41.412;2.164;2023-05-24T10:40:40;100290.84;;;24.62;42.84
47154;BME280;32907;41.412;2.164;2023-05-24T10:43:09;100229.06;;;24.18;42.89
47154;BME280;32907;41.412;2.164;2023-05-24T10:45:40;100235.16;;;24.41;43.10
47154;BME280;32907;41.412;2.164;2023-05-24T10:50:42;100342.31;;;25.12;42.65
47154;BME280;32907;41.412;2.164;2023-05-24T10:53:15;100341.81;;;25.10;42.74
47154;BME280;32907;41.412;2.164;2023-05-24T10:55:57;100347.00;;;25.12;42.58
47154;BME280;32907;41.412;2.164;2023-05-24T11:01:23;100123.34;;;23.53;42.51
47154;BME280;32907;41.412;2.164;2023-05-24T11:04:09;100353.75;;;25.14;42.56
47154;BME280;32907;41.412;2.164;2023-05-24T11:06:54;100086.81;;;23.40;42.82
47154;BME280;32907;41.412;2.164;2023-05-24T11:09:23;100196.38;;;24.04;42.22
47154;BME280;32907;41.412;2.164;2023-05-24T11:11:55;100352.28;;;25.17;41.69
47154;BME280;32907;41.412;2.164;2023-05-24T11:14:30;100126.91;;;23.62;41.86
47154;BME280;32907;41.412;2.164;2023-05-24T11:16:59;100181.25;;;23.89;42.39
47154;BME280;32907;41.412;2.164;2023-05-24T11:19:44;100147.28;;;23.82;42.46
47154;BME280;32907;41.412;2.164;2023-05-24T11:22:14;100269.59;;;24.59;42.82
47154;BME280;32907;41.412;2.164;2023-05-24T11:24:45;100194.00;;;23.94;42.54
47154;BME280;32907;41.412;2.164;2023-05-24T11:27:19;100253.69;;;24.35;42.48
47154;BME280;32907;41.412;2.164;2023-05-24T11:29:51;100181.91;;;23.95;43.55
47154;BME280;32907;41.412;2.164;2023-05-24T11:32:20;100193.97;;;24.03;42.16
47154;BME280;32907;41.412;2.164;2023-05-24T11:34:51;100358.50;;;25.05;42.59
47154;BME280;32907;41.412;2.164;2023-05-24T11:37:19;100129.31;;;23.46;42.75
47154;BME280;32907;41.412;2.164;2023-05-24T11:40:02;100131.25;;;23.37;42.98
47154;BME280;32907;41.412;2.164;2023-05-24T11:42:32;100310.22;;;24.57;43.06
47154;BME280;32907;41.412;2.164;2023-05-24T11:45:01;100139.09;;;23.56;42.17
47154;BME280;32907;41.412;2.164;2023-05-24T11:47:34;100336.22;;;24.98;42.36
47154;BME280;32907;41.412;2.164;2023-05-24T11:50:05;100080.88;;;23.38;41.74
47154;BME280;32907;41.412;2.164;2023-05-24T11:52:39;100236.72;;;24.50;41.79
47154;BME280;32907;41.412;2.164;2023-05-24T11:55:10;100141.19;;;23.85;42.22
47154;BME280;32907;41.412;2.164;2023-05-24T11:57:47;100340.22;;;25.09;42.69
47154;BME280;32907;41.412;2.164;2023-05-24T12:00:24;100355.03;;;25.17;42.35
47154;BME280;32907;41.412;2.164;2023-05-24T12:02:56;100221.19;;;24.16;41.86
47154;BME280;32907;41.412;2.164;2023-05-24T12:05:41;100225.03;;;24.15;41.78
47154;BME280;32907;41.412;2.164;2023-05-24T12:08:15;100209.88;;;24.18;41.85
47154;BME280;32907;41.412;2.164;2023-05-24T12:10:43;100097.13;;;23.60;42.03
47154;BME280;32907;41.412;2.164;2023-05-24T12:13:23;100137.81;;;23.79;42.21
47154;BME280;32907;41.412;2.164;2023-05-24T12:16:10;100105.31;;;23.69;42.31
47154;BME280;32907;41.412;2.164;2023-05-24T12:18:44;100106.72;;;23.84;42.32
47154;BME280;32907;41.412;2.164;2023-05-24T12:21:32;100079.69;;;23.82;42.47
47154;BME280;32907;41.412;2.164;2023-05-24T12:24:09;100319.59;;;25.32;41.89
47154;BME280;32907;41.412;2.164;2023-05-24T12:26:46;100108.75;;;23.95;41.42
47154;BME280;32907;41.412;2.164;2023-05-24T12:29:15;100320.28;;;25.29;41.65
47154;BME280;32907;41.412;2.164;2023-05-24T12:31:47;100234.06;;;24.71;41.82
47154;BME280;32907;41.412;2.164;2023-05-24T12:34:21;100067.47;;;23.62;41.79
47154;BME280;32907;41.412;2.164;2023-05-24T12:36:52;100253.56;;;24.78;41.93
47154;BME280;32907;41.412;2.164;2023-05-24T12:39:22;100147.84;;;24.13;42.27
47154;BME280;32907;41.412;2.164;2023-05-24T12:42:01;100330.72;;;25.36;42.42
47154;BME280;32907;41.412;2.164;2023-05-24T12:44:32;100079.50;;;23.79;42.28
47154;BME280;32907;41.412;2.164;2023-05-24T12:47:03;100318.78;;;25.32;42.46
47154;BME280;32907;41.412;2.164;2023-05-24T12:49:32;100064.75;;;23.54;42.90
47154;BME280;32907;41.412;2.164;2023-05-24T12:52:01;100066.34;;;23.55;42.85
47154;BME280;32907;41.412;2.164;2023-05-24T12:54:29;100068.75;;;23.56;42.65
47154;BME280;32907;41.412;2.164;2023-05-24T12:57:03;100063.13;;;23.70;42.91
47154;BME280;32907;41.412;2.164;2023-05-24T12:59:34;100164.88;;;24.36;42.87
47154;BME280;32907;41.412;2.164;2023-05-24T13:05:28;100084.25;;;23.61;43.86
47154;BME280;32907;41.412;2.164;2023-05-24T13:07:57;100069.25;;;23.50;43.96
47154;BME280;32907;41.412;2.164;2023-05-24T13:10:27;100328.34;;;25.26;44.20
47154;BME280;32907;41.412;2.164;2023-05-24T13:12:56;100085.03;;;23.61;44.30
47154;BME280;32907;41.412;2.164;2023-05-24T13:15:25;100202.44;;;24.36;44.13
47154;BME280;32907;41.412;2.164;2023-05-24T13:17:56;100184.25;;;24.22;44.42
47154;BME280;32907;41.412;2.164;2023-05-24T13:20:24;100258.09;;;24.66;44.61
47154;BME280;32907;41.412;2.164;2023-05-24T13:22:53;100158.19;;;24.08;44.85
47154;BME280;32907;41.412;2.164;2023-05-24T13:25:22;100115.25;;;23.73;44.72
47154;BME280;32907;41.412;2.164;2023-05-24T13:27:50;100159.66;;;23.96;44.70
47154;BME280;32907;41.412;2.164;2023-05-24T13:30:22;100102.91;;;23.67;44.66
47154;BME280;32907;41.412;2.164;2023-05-24T13:32:58;100348.38;;;25.26;44.95
47154;BME280;32907;41.412;2.164;2023-05-24T13:35:29;100084.88;;;23.49;45.17
47154;BME280;32907;41.412;2.164;2023-05-24T13:38:06;100155.97;;;23.92;45.78
47154;BME280;32907;41.412;2.164;2023-05-24T13:40:36;100088.72;;;23.48;45.60
47154;BME280;32907;41.412;2.164;2023-05-24T13:43:12;100199.06;;;24.21;45.62
47154;BME280;32907;41.412;2.164;2023-05-24T13:49:04;100171.09;;;23.90;45.12
47154;BME280;32907;41.412;2.164;2023-05-24T13:51:34;100100.69;;;23.35;45.01
47154;BME280;32907;41.412;2.164;2023-05-24T13:54:03;100107.28;;;23.42;45.01